Terminal Aerodrome Forecast
Issued by NWS Greer, SC

Home | Current Version | Previous Version | Text Only | Print | Product List | Glossary On
Versions: 1 2 3 4 5 6 7 8 9 10 11 12 13 14 15 16
000
FTUS42 KGSP 261923 AAA
TAFAVL
TAF AMD
KAVL 261923Z 2619/2718 20005KT P6SM VCTS SCT040CB BKN100 BKN200
      TEMPO 2620/2624 3SM TSRA BKN030CB OVC090
     FM270300 00000KT P6SM VCSH OVC050
     FM270900 VRB02KT 1 1/2SM BR OVC025
     FM271300 33003KT P6SM BKN035 PROB30 2713/2718 2SM -SHRA OVC025=

USA.gov is the U.S. government's official web portal to all federal, state and local government web resources and services.